• Join FlightAware (Why Join?)
  • Login
  • US Flag 
04:17AM EDT


 

Airport Tracker/Info


-or-


 

Live Flight TrackerFlight Track Log ✈ AWE700 ✈ 24-Apr-2013 ✈ KLAX - KPHL

Flight Track Log - Related Links

Times and Time Zones

All times are in EDT time to prevent confusion due to time zone crossing. See the AWE700 flight status page for this flight to view local times or setup timezone preferences in your user account.

Time Position Orientation Groundspeed Altitude Reporting Facility
EDT Latitude Longitude Course Direction KTS MPH feet Rate Location/Type
09:35AM 33.9460 -118.4480 265° West 176 203 1,200  Level FlightAware
09:36AM 33.9450 -118.4620 265° West 186 214 1,700 1,200 Climbing FlightAware
09:36AM 33.9430 -118.4880 265° West 210 242 2,000 720 Climbing FlightAware
09:36AM 33.9360 -118.5070 246° West 222 255 2,200 780 Climbing FlightAware
09:36AM 33.9240 -118.5170 215° Southwest 236 272 2,400 1,500 Climbing FlightAware
09:37AM 33.8950 -118.5260 194° South 248 285 3,200 2,220 Climbing FlightAware
09:37AM 33.8770 -118.5320 195° South 249 287 3,900 1,980 Climbing FlightAware
09:38AM 33.8460 -118.5410 194° South 264 304 4,700 2,040 Climbing FlightAware
09:38AM 33.8120 -118.5490 191° South 264 304 5,800 2,940 Climbing FlightAware
09:39AM 33.7600 -118.5430 175° South 266 306 7,400 2,580 Climbing FlightAware
09:39AM 33.7300 -118.5350 167° South 273 314 8,200 1,980 Climbing FlightAware
09:39AM 33.7110 -118.5140 137° Southeast 278 320 8,900 1,980 Climbing FlightAware
09:40AM 33.6900 -118.4860 132° Southeast 281 323 9,700 1,920 Climbing FlightAware
09:40AM 33.6560 -118.4370 130° Southeast 289 333 11,000 1,620 Climbing FlightAware
09:41AM 33.6520 -118.4120 101° East 304 350 11,200 720 Climbing FlightAware
09:41AM 33.6670 -118.3450 75° East 338 389 11,700 1,260 Climbing FlightAware
09:42AM 33.6920 -118.2620 70° East 348 400 13,000 1,740 Climbing FlightAware
09:43AM 33.7230 -118.1930 62° Northeast 355 409 14,200 1,680 Climbing FlightAware
09:43AM 33.7570 -118.1140 63° Northeast 365 420 15,400 1,620 Climbing FlightAware
09:44AM 33.7940 -118.0460 57° Northeast 375 432 16,500 1,380 Climbing FlightAware
09:45AM 33.8510 -117.9940 37° Northeast 390 449 17,300 840 Climbing FlightAware
09:46AM 33.9200 -117.9320 37° Northeast 419 482 17,700 540 Climbing FlightAware
09:46AM 33.9840 -117.8730 37° Northeast 443 510 18,100 720 Climbing FlightAware
09:47AM 34.0590 -117.8060 36° Northeast 456 525 18,800 1,020 Climbing FlightAware
09:48AM 34.1200 -117.7370 43° Northeast 460 529 19,600 1,200 Climbing FlightAware
09:48AM 34.1880 -117.6720 38° Northeast 468 539 20,400 1,200 Climbing FlightAware
09:49AM 34.2700 -117.6050 34° Northeast 472 543 21,300 1,020 Climbing FlightAware
09:50AM 34.3420 -117.5450 35° Northeast 477 549 21,900 900 Climbing FlightAware
09:50AM 34.4230 -117.4770 35° Northeast 486 559 22,600 900 Climbing FlightAware
09:51AM 34.4990 -117.4140 34° Northeast 490 564 23,200 900 Climbing FlightAware
09:52AM 34.5750 -117.3510 34° Northeast 497 572 23,800 960 Climbing FlightAware
09:53AM 34.6590 -117.2810 34° Northeast 496 571 24,600 840 Climbing FlightAware
09:53AM 34.7290 -117.1990 44° Northeast 503 579 25,000 720 Climbing FlightAware
09:54AM 34.7890 -117.1140 49° Northeast 504 580 25,600 720 Climbing FlightAware
09:55AM 34.8540 -117.0240 49° Northeast 507 583 26,100 660 Climbing FlightAware
09:55AM 34.9190 -116.9340 49° Northeast 510 587 26,600 960 Climbing FlightAware
09:56AM 34.9900 -116.8320 50° Northeast 505 581 27,500 960 Climbing FlightAware
09:57AM 35.0380 -116.7630 50° Northeast 505 581 27,900 960 Climbing FlightAware
09:57AM 35.1090 -116.6620 49° Northeast 499 574 28,800 840 Climbing FlightAware
09:58AM 35.1850 -116.5470 51° Northeast 497 572 29,300 300 Climbing FlightAware
09:59AM 35.2340 -116.4730 51° Northeast 497 572 29,300 840 Level FlightAware
10:00AM 35.3190 -116.3420 51° Northeast 499 574 30,600 1,080 Climbing FlightAware
10:01AM 35.3820 -116.2460 51° Northeast 498 573 31,100 660 Climbing FlightAware
10:01AM 35.4380 -116.1610 51° Northeast 494 568 31,600 660 Climbing FlightAware
10:02AM 35.5030 -116.0600 52° Northeast 492 566 32,100 600 Climbing FlightAware
10:03AM 35.5540 -115.9820 51° Northeast 493 567 32,400 300 Climbing FlightAware
10:03AM 35.6150 -115.8880 51° Northeast 493 567 32,500 300 Climbing FlightAware
10:04AM 35.6730 -115.7970 52° Northeast 496 571 32,900 360 Climbing FlightAware
10:05AM 35.7330 -115.7040 52° Northeast 500 575 33,000 60 Climbing FlightAware
10:05AM 35.7980 -115.6030 52° Northeast 505 581 33,000  Level FlightAware
10:06AM 35.8630 -115.5010 52° Northeast 505 581 33,000  Level FlightAware
10:07AM 35.9200 -115.4120 52° Northeast 505 581 33,000  Level FlightAware
10:07AM 35.9790 -115.3190 52° Northeast 505 581 33,000  Level FlightAware
10:08AM 36.0420 -115.2170 53° Northeast 506 582 33,000  Level FlightAware
10:09AM 36.0900 -115.1160 60° Northeast 510 587 33,000  Level FlightAware
10:10AM 36.1320 -114.9930 67° East 513 590 33,000  Level FlightAware
10:10AM 36.1660 -114.8830 69° East 514 592 33,000  Level FlightAware
10:11AM 36.2020 -114.7630 70° East 516 594 33,000  Level FlightAware
10:12AM 36.2360 -114.6530 69° East 518 596 33,000  Level FlightAware
10:12AM 36.2760 -114.5210 69° East 518 596 33,000  Level FlightAware
10:13AM 36.3090 -114.4120 69° East 520 598 33,000  Level FlightAware
10:14AM 36.3430 -114.3010 69° East 520 598 33,000  Level FlightAware
10:15AM 36.3790 -114.1790 70° East 520 598 33,000  Level FlightAware
10:15AM 36.4100 -114.0760 69° East 522 601 33,000  Level FlightAware
10:16AM 36.4520 -113.9350 70° East 523 602 33,000  Level FlightAware
10:17AM 36.4850 -113.8230 70° East 522 601 33,000  Level FlightAware
10:17AM 36.5230 -113.6980 69° East 523 602 33,000  Level FlightAware
10:18AM 36.5550 -113.5860 70° East 524 603 33,000  Level FlightAware
10:19AM 36.5890 -113.4710 70° East 525 604 33,000  Level FlightAware
10:19AM 36.6220 -113.3590 70° East 527 606 33,000  Level FlightAware
10:20AM 36.6600 -113.2270 70° East 528 608 33,000  Level FlightAware
10:21AM 36.6940 -113.1100 70° East 528 608 33,000  Level FlightAware
10:22AM 36.7300 -112.9840 70° East 529 609 33,000  Level FlightAware
10:22AM 36.7620 -112.8720 70° East 530 610 33,000  Level FlightAware
10:23AM 36.7960 -112.7560 70° East 531 611 33,000  Level FlightAware
10:24AM 36.8270 -112.6460 71° East 532 612 33,000  Level FlightAware
10:24AM 36.8560 -112.5480 70° East 532 612 33,000  Level FlightAware
10:25AM 36.8920 -112.4250 70° East 532 612 33,000  Level FlightAware
10:26AM 36.9200 -112.3270 70° East 532 612 33,000  Level FlightAware
10:26AM 36.9490 -112.2290 70° East 532 612 33,000  Level FlightAware
10:27AM 36.9770 -112.1300 70° East 532 612 33,000  Level FlightAware
10:28AM 37.0060 -112.0320 70° East 532 612 33,000  Level FlightAware
10:29AM 37.0420 -111.9090 70° East 532 612 33,000  Level FlightAware
10:29AM 37.0700 -111.8100 70° East 532 612 33,000  Level FlightAware
10:30AM 37.0990 -111.7110 70° East 532 612 33,000  Level FlightAware
10:31AM 37.1280 -111.6130 70° East 532 612 33,000  Level FlightAware
10:31AM 37.1560 -111.5140 70° East 532 612 33,000  Level FlightAware
10:32AM 37.1850 -111.4150 70° East 532 612 33,000  Level FlightAware
10:33AM 37.2200 -111.2920 70° East 532 612 33,000  Level FlightAware
10:34AM 37.3292 -110.8142 70° East 546 628 33,000  Level Denver Center
10:35AM 37.3767 -110.6356 71° East 543 625 33,000  Level Denver Center
10:36AM 37.4233 -110.4553 72° East 544 626 33,000  Level Denver Center
10:37AM 37.4697 -110.2744 72° East 545 627 33,000  Level Denver Center
10:38AM 37.5233 -110.0683 72° East 548 631 33,000  Level Denver Center
10:39AM 37.5753 -109.8636 72° East 550 633 33,000  Level Denver Center
10:40AM 37.6208 -109.6850 72° East 556 640 33,000  Level Denver Center
10:41AM 37.6656 -109.5072 72° East 556 640 33,000  Level Denver Center
10:42AM 37.7178 -109.2975 72° East 559 643 33,000  Level Denver Center
10:43AM 37.7628 -109.1192 72° East 557 641 33,000  Level Denver Center
10:44AM 37.8131 -108.9092 73° East 559 643 33,000  Level Denver Center
10:45AM 37.8475 -108.7236 77° East 564 649 33,000  Level Denver Center
10:46AM 37.8875 -108.5056 77° East 569 655 33,000  Level Denver Center
10:47AM 37.9225 -108.3217 76° East 566 651 33,000  Level Denver Center
10:48AM 37.9611 -108.1056 77° East 563 648 33,000  Level Denver Center
10:49AM 37.9958 -107.9211 77° East 563 648 33,000  Level Denver Center
10:50AM 38.0344 -107.7028 77° East 566 651 33,000  Level Denver Center
10:51AM 38.0681 -107.5158 77° East 568 654 33,000  Level Denver Center
10:57AM 38.2688 -106.3440 77° East 566 651 33,000  Level FlightAware ADS-B
10:58AM 38.2886 -106.2250 78° East 567 652 33,000  Level FlightAware ADS-B
10:58AM 38.3058 -106.1200 78° East 568 654 33,000 60 Level FlightAware ADS-B
10:59AM 38.3224 -106.0190 78° East 568 654 33,100 60 Climbing FlightAware ADS-B
11:00AM 38.3383 -105.9210 78° East 568 654 33,100 -120 Level FlightAware ADS-B
11:00AM 38.3543 -105.8220 78° East 567 652 33,000 -120 Descending FlightAware ADS-B
11:01AM 38.3704 -105.7220 78° East 567 652 33,000  Level FlightAware ADS-B
11:01AM 38.3862 -105.6230 78° East 566 651 33,000  Level FlightAware ADS-B
11:02AM 38.4023 -105.5210 79° East 565 650 33,000  Level FlightAware ADS-B
11:02AM 38.4175 -105.4250 79° East 564 649 33,000  Level FlightAware ADS-B
11:03AM 38.4327 -105.3280 79° East 564 649 33,000  Level FlightAware ADS-B
11:03AM 38.4481 -105.2290 79° East 564 649 33,000  Level FlightAware ADS-B
11:04AM 38.4635 -105.1300 79° East 563 648 33,000  Level FlightAware ADS-B
11:04AM 38.4789 -105.0310 79° East 564 649 33,000  Level FlightAware ADS-B
11:05AM 38.4943 -104.9310 79° East 566 651 33,000  Level FlightAware ADS-B
11:05AM 38.5096 -104.8300 79° East 567 652 33,000  Level FlightAware ADS-B
11:06AM 38.5247 -104.7310 79° East 568 654 33,000  Level FlightAware ADS-B
11:06AM 38.5417 -104.6170 79° East 570 656 33,000  Level FlightAware ADS-B
11:07AM 38.5592 -104.5010 79° East 572 658 33,000  Level FlightAware ADS-B
11:07AM 38.5741 -104.4010 79° East 575 662 33,000  Level FlightAware ADS-B
11:08AM 38.5893 -104.2980 79° East 577 664 33,000  Level FlightAware ADS-B
11:08AM 38.6041 -104.1960 79° East 579 666 33,000 60 Level FlightAware ADS-B
11:09AM 38.6189 -104.0950 79° East 580 667 33,100 60 Climbing FlightAware ADS-B
11:09AM 38.6340 -103.9910 79° East 581 669 33,100  Level FlightAware ADS-B
11:10AM 38.6488 -103.8890 79° East 580 667 33,100 -120 Level FlightAware ADS-B
11:10AM 38.6633 -103.7870 80° East 580 667 33,000 -120 Descending FlightAware ADS-B
11:11AM 38.6779 -103.6840 80° East 581 669 33,000  Level FlightAware ADS-B
11:11AM 38.6926 -103.5790 80° East 582 670 33,000  Level FlightAware ADS-B
11:12AM 38.7068 -103.4770 80° East 583 671 33,000  Level FlightAware ADS-B
11:12AM 38.7235 -103.3570 80° East 587 676 33,000  Level FlightAware ADS-B
11:13AM 38.7382 -103.2500 80° East 588 677 33,000  Level FlightAware ADS-B
11:13AM 38.7523 -103.1470 80° East 585 673 33,000  Level FlightAware ADS-B
11:14AM 38.7663 -103.0440 80° East 583 671 33,000  Level FlightAware ADS-B
11:14AM 38.7801 -102.9420 80° East 583 671 33,000  Level FlightAware ADS-B
11:15AM 38.7938 -102.8390 80° East 583 671 33,000  Level FlightAware ADS-B
11:15AM 38.8079 -102.7330 80° East 584 672 33,000  Level FlightAware ADS-B
11:16AM 38.8218 -102.6280 80° East 585 673 33,000  Level FlightAware ADS-B
11:16AM 38.8353 -102.5250 80° East 586 674 33,000  Level FlightAware ADS-B
11:17AM 38.8489 -102.4210 80° East 587 676 33,000  Level FlightAware ADS-B
11:17AM 38.8622 -102.3180 81° East 587 676 33,000  Level FlightAware ADS-B
11:18AM 38.8756 -102.2130 81° East 587 676 33,000  Level FlightAware ADS-B
11:19AM 38.8894 -102.1040 81° East 588 677 33,000  Level FlightAware ADS-B
11:19AM 38.9027 -102.0000 81° East 587 676 33,000  Level FlightAware ADS-B
11:20AM 38.9156 -101.8960 81° East 588 677 33,000  Level FlightAware ADS-B
11:20AM 38.9304 -101.7780 81° East 589 678 33,000  Level FlightAware ADS-B
11:21AM 38.9475 -101.6400 81° East 590 679 33,000  Level FlightAware ADS-B
11:21AM 38.9619 -101.5192 81° East 589 678 33,000  Level Denver Center
11:22AM 38.9867 -101.3186 81° East 592 681 33,000  Level Denver Center
11:24AM 39.0144 -101.0842 81° East 592 681 33,000  Level Denver Center
11:25AM 39.0406 -100.8622 81° East 592 681 33,000  Level Denver Center
11:26AM 39.0631 -100.6614 82° East 594 684 33,000  Level Denver Center
11:27AM 39.0897 -100.4289 82° East 592 681 33,000 120 Level Denver Center
11:28AM 39.1117 -100.2286 82° East 593 682 33,300 480 Climbing Denver Center
11:29AM 39.1381 -99.9917 82° East 588 677 34,000 480 Climbing Denver Center
11:30AM 39.1606 -99.7808 82° East 586 674 34,300 360 Climbing Denver Center
11:31AM 39.1819 -99.5822 82° East 585 673 34,800 300 Climbing Denver Center
11:32AM 39.2033 -99.3694 83° East 583 671 35,000 60 Climbing Denver Center
11:33AM 39.2275 -99.1422 82° East 576 663 35,000  Level Denver Center
11:34AM 39.2461 -98.9458 83° East 578 665 35,000  Level Denver Center
11:35AM 39.2689 -98.7161 83° East 578 665 35,000  Level Denver Center
11:36AM 39.2883 -98.5131 83° East 573 659 35,000  Level Denver Center
11:37AM 39.3083 -98.3050 83° East 576 663 35,000  Level Kansas City Center
11:38AM 39.3253 -98.1100 84° East 570 656 35,000  Level Kansas City Center
11:39AM 39.3461 -97.8806 83° East 574 661 35,000  Level Kansas City Center
11:40AM 39.3650 -97.6964 82° East 567 652 35,000 -360 Level Kansas City Center
11:46AM 39.4430 -96.7440 82° East 571 657 33,000 -360 Descending FlightAware
11:46AM 39.4540 -96.6090 84° East 568 654 33,000  Level FlightAware
11:47AM 39.4670 -96.4440 84° East 568 654 33,000  Level FlightAware
11:48AM 39.4770 -96.3130 84° East 568 654 33,000  Level FlightAware
11:48AM 39.4880 -96.1690 84° East 568 654 33,000  Level FlightAware
11:49AM 39.5000 -96.0110 84° East 568 654 33,000  Level FlightAware
11:50AM 39.5160 -95.8600 82° East 566 651 33,000  Level FlightAware
11:50AM 39.5300 -95.7230 82° East 566 651 33,000  Level FlightAware
11:51AM 39.5440 -95.5980 82° East 565 650 33,000  Level FlightAware
11:52AM 39.5550 -95.4900 82° East 565 650 33,000  Level FlightAware
11:53AM 39.5890 -95.1620 82° East 559 643 33,000  Level FlightAware
11:53AM 39.6030 -95.0260 82° East 559 643 33,000  Level FlightAware
11:54AM 39.6190 -94.8720 82° East 559 643 33,000  Level FlightAware
11:55AM 39.6320 -94.7410 83° East 558 642 33,000  Level FlightAware
11:55AM 39.6440 -94.6080 83° East 556 640 33,000  Level FlightAware
11:56AM 39.6580 -94.4640 83° East 555 639 33,000  Level FlightAware
11:57AM 39.6710 -94.3290 83° East 555 639 33,000  Level FlightAware
11:57AM 39.6850 -94.1790 83° East 555 639 33,000  Level FlightAware
11:58AM 39.6980 -94.0460 83° East 556 640 33,000  Level FlightAware
11:59AM 39.7100 -93.9150 83° East 557 641 33,000  Level FlightAware
11:59AM 39.7220 -93.7790 83° East 557 641 33,000  Level FlightAware
12:00PM 39.7350 -93.6370 83° East 553 636 33,000  Level FlightAware
12:01PM 39.7480 -93.4830 84° East 554 638 33,000  Level FlightAware
12:02PM 39.7600 -93.3500 83° East 555 639 33,000  Level FlightAware
12:02PM 39.7710 -93.2170 84° East 556 640 33,000  Level FlightAware
12:03PM 39.7830 -93.0750 84° East 558 642 33,000  Level FlightAware
12:04PM 39.7950 -92.9390 83° East 559 643 33,000  Level FlightAware
12:04PM 39.8060 -92.8160 83° East 559 643 33,000  Level FlightAware
12:05PM 39.8170 -92.7020 83° East 559 643 33,000  Level FlightAware
12:06PM 39.8270 -92.5890 83° East 559 643 33,000  Level FlightAware
12:07PM 39.8390 -92.3800 86° East 541 623 33,000  Level FlightAware
12:07PM 39.8490 -92.2500 84° East 541 623 33,000  Level FlightAware
12:08PM 39.8590 -92.1300 84° East 541 623 33,000 300 Level FlightAware
12:09PM 39.8700 -91.9790 85° East 541 623 33,500 660 Climbing FlightAware
12:09PM 39.8790 -91.8620 84° East 540 621 33,900 480 Climbing FlightAware
12:10PM 39.8930 -91.6620 85° East 539 620 34,300 540 Climbing FlightAware
12:11PM 39.9030 -91.5230 85° East 538 619 34,900 480 Climbing FlightAware
12:12PM 39.9120 -91.3960 85° East 542 624 35,000 60 Climbing FlightAware
12:12PM 39.9200 -91.2660 85° East 547 629 35,000  Level FlightAware
12:13PM 39.9340 -91.0630 85° East 548 631 35,000  Level FlightAware
12:14PM 39.9450 -90.8950 85° East 547 629 35,000  Level FlightAware
12:15PM 39.9550 -90.7500 85° East 547 629 35,000  Level FlightAware
12:16PM 39.9640 -90.6030 85° East 547 629 35,000  Level FlightAware
12:16PM 39.9720 -90.4770 85° East 547 629 35,000  Level FlightAware
12:17PM 39.9800 -90.3360 86° East 547 629 35,000  Level FlightAware
12:18PM 39.9910 -90.1500 86° East 546 628 35,000  Level FlightAware
12:19PM 39.9990 -90.0190 85° East 545 627 35,000  Level FlightAware
12:19PM 40.0070 -89.8680 86° East 544 626 35,000  Level FlightAware
12:20PM 40.0140 -89.7420 86° East 544 626 35,000  Level FlightAware
12:21PM 40.0210 -89.6110 86° East 544 626 35,000  Level FlightAware
12:21PM 40.0290 -89.4660 86° East 545 627 35,000  Level FlightAware
12:22PM 40.0360 -89.3250 86° East 546 628 35,000  Level FlightAware
12:23PM 40.0440 -89.1770 86° East 548 631 35,000  Level FlightAware
12:24PM 40.0500 -89.0540 86° East 549 632 35,000  Level FlightAware
12:24PM 40.0560 -88.9210 87° East 549 632 35,000  Level FlightAware
12:25PM 40.0630 -88.7830 86° East 547 629 35,000  Level FlightAware
12:26PM 40.0700 -88.6350 86° East 547 629 35,000  Level FlightAware
12:26PM 40.0760 -88.4930 87° East 548 631 35,000  Level FlightAware
12:27PM 40.0820 -88.3660 86° East 548 631 35,000  Level FlightAware
12:28PM 40.0930 -88.2060 85° East 551 634 35,000  Level FlightAware
12:28PM 40.1010 -88.0780 85° East 551 634 35,000  Level FlightAware
12:29PM 40.1100 -87.9270 85° East 544 626 35,000  Level FlightAware
12:30PM 40.1180 -87.7990 85° East 542 624 35,000  Level FlightAware
12:30PM 40.1260 -87.6910 84° East 542 624 35,000  Level FlightAware
12:31PM 40.1350 -87.5250 86° East 531 611 35,000  Level FlightAware
12:32PM 40.1430 -87.3940 85° East 535 616 35,000  Level FlightAware
12:33PM 40.1510 -87.2510 86° East 538 619 35,000 60 Level FlightAware
12:33PM 40.1580 -87.1180 86° East 538 619 35,100 60 Climbing FlightAware
12:34PM 40.1650 -87.0000 86° East 537 618 35,100 -120 Level FlightAware
12:35PM 40.1730 -86.8510 86° East 524 603 35,000 -120 Descending FlightAware
12:35PM 40.1800 -86.7230 86° East 514 592 35,000  Level FlightAware
12:36PM 40.1870 -86.5870 86° East 512 589 35,000  Level FlightAware
12:37PM 40.1930 -86.4610 86° East 511 588 35,000  Level FlightAware
12:38PM 40.1990 -86.3330 86° East 509 586 35,000  Level FlightAware
12:38PM 40.2050 -86.2160 86° East 509 586 35,000  Level FlightAware
12:39PM 40.2110 -86.0920 86° East 509 586 35,000  Level FlightAware
12:40PM 40.2170 -85.9510 87° East 515 593 35,000  Level FlightAware
12:40PM 40.2230 -85.8120 87° East 525 604 35,000  Level FlightAware
12:41PM 40.2280 -85.6990 87° East 529 609 35,000  Level FlightAware
12:42PM 40.2350 -85.5570 86° East 528 608 35,000  Level FlightAware
12:42PM 40.2400 -85.4220 87° East 500 575 35,000  Level FlightAware
12:43PM 40.2450 -85.3070 87° East 488 562 35,000  Level FlightAware
12:44PM 40.2500 -85.1710 87° East 487 560 35,000  Level FlightAware
12:45PM 40.2550 -85.0450 87° East 496 571 35,000  Level FlightAware
12:45PM 40.2600 -84.9120 87° East 500 575 35,000  Level FlightAware
12:46PM 40.2640 -84.7930 87° East 501 577 35,000  Level FlightAware
12:47PM 40.2690 -84.6580 87° East 508 585 35,000  Level FlightAware
12:47PM 40.2720 -84.5490 88° East 513 590 35,000 60 Level FlightAware
12:48PM 40.2770 -84.4040 87° East 518 596 35,100 60 Climbing FlightAware
12:49PM 40.2810 -84.2650 88° East 520 598 35,100 -120 Level FlightAware
12:49PM 40.2850 -84.1400 88° East 523 602 35,000 -120 Descending FlightAware
12:50PM 40.2890 -83.9940 88° East 522 601 35,000  Level FlightAware
12:51PM 40.2930 -83.8660 88° East 522 601 35,000  Level FlightAware
12:52PM 40.2960 -83.7450 88° East 520 598 35,000  Level FlightAware
12:52PM 40.3000 -83.6020 88° East 519 597 35,000  Level FlightAware
12:53PM 40.3030 -83.4770 88° East 518 596 35,000  Level FlightAware
12:54PM 40.3050 -83.3480 89° East 519 597 35,000  Level FlightAware
12:54PM 40.3010 -83.2110 92° East 510 587 35,000  Level FlightAware
12:55PM 40.2930 -83.0860 95° East 512 589 35,000  Level FlightAware
12:56PM 40.2870 -82.9570 93° East 520 598 35,000  Level FlightAware
12:56PM 40.2900 -82.8230 88° East 524 603 35,000 60 Level FlightAware
12:57PM 40.2930 -82.6970 88° East 524 603 35,100 60 Climbing FlightAware
12:58PM 40.2970 -82.5520 88° East 520 598 35,100  Level FlightAware
12:59PM 40.2990 -82.4330 89° East 517 595 35,100  Level FlightAware
12:59PM 40.3020 -82.3010 88° East 512 589 35,100 -120 Level FlightAware
01:00PM 40.3040 -82.1620 89° East 508 585 35,000 -120 Descending FlightAware
01:01PM 40.3060 -82.0420 89° East 505 581 35,000  Level FlightAware
01:01PM 40.3090 -81.9070 88° East 503 579 35,000  Level FlightAware
01:02PM 40.3110 -81.7860 89° East 506 582 35,000  Level FlightAware
01:03PM 40.3260 -81.6610 81° East 512 589 35,000  Level FlightAware
01:03PM 40.3450 -81.5240 80° East 515 593 35,000  Level FlightAware
01:04PM 40.3630 -81.3990 79° East 515 593 35,000  Level FlightAware
01:05PM 40.3830 -81.2630 79° East 516 594 35,000  Level FlightAware
01:06PM 40.4000 -81.1420 80° East 518 596 35,000  Level FlightAware
01:06PM 40.4190 -80.9980 80° East 518 596 35,000  Level FlightAware
01:07PM 40.4210 -80.8730 89° East 510 587 35,000  Level FlightAware
01:08PM 40.4160 -80.7550 93° East 511 588 35,000  Level FlightAware
01:08PM 40.4100 -80.6150 93° East 513 590 35,000  Level FlightAware
01:09PM 40.4040 -80.4890 94° East 514 592 35,000  Level FlightAware
01:10PM 40.3990 -80.3680 93° East 515 593 35,000  Level FlightAware
01:10PM 40.3920 -80.2200 94° East 516 594 35,000  Level FlightAware
01:11PM 40.3860 -80.0940 94° East 517 595 35,000  Level FlightAware
01:12PM 40.3790 -79.9610 94° East 517 595 35,000  Level FlightAware
01:13PM 40.3730 -79.8350 94° East 517 595 35,000  Level FlightAware
01:13PM 40.3660 -79.7080 94° East 517 595 35,000  Level FlightAware
01:14PM 40.3600 -79.5910 94° East 515 593 35,000  Level FlightAware
01:15PM 40.3520 -79.4420 94° East 513 590 35,000  Level FlightAware
01:15PM 40.3450 -79.3210 94° East 512 589 35,000  Level FlightAware
01:16PM 40.3350 -79.1370 94° East 510 587 35,000  Level FlightAware
01:17PM 40.3290 -79.0380 95° East 512 589 35,000  Level FlightAware
01:18PM 40.3210 -78.9070 95° East 512 589 35,000 -240 Level FlightAware
01:18PM 40.3170 -78.7610 92° East 519 597 34,700 -780 Descending FlightAware
01:19PM 40.3170 -78.6440 90° East 520 598 33,900 -1,860 Descending FlightAware
01:20PM 40.3160 -78.5040 90° East 514 592 32,100 -2,520 Descending FlightAware
01:20PM 40.3160 -78.3800 90° East 509 586 30,400 -2,580 Descending FlightAware
01:21PM 40.3150 -78.2480 91° East 506 582 28,500 -1,440 Descending FlightAware
01:22PM 40.3150 -78.1460 90° East 506 582 28,500  Level FlightAware
01:22PM 40.3150 -78.0410 90° East 506 582 28,500  Level FlightAware
01:23PM 40.3150 -77.9110 90° East 506 582 28,500 -2,340 Level FlightAware
01:24PM 40.3110 -77.7410 92° East 490 564 25,000 -2,160 Descending FlightAware
01:26PM 40.3080 -77.4260 91° East 467 537 23,200 -1,020 Descending FlightAware
01:28PM 40.2940 -77.0340 93° East 451 519 20,900 -960 Descending FlightAware
01:29PM 40.2610 -76.8900 107° East 449 517 20,000 -900 Descending FlightAware
01:30PM 40.2440 -76.8150 107° East 455 524 19,500 -1,140 Descending FlightAware
01:30PM 40.2120 -76.6790 107° East 447 514 18,600 -1,500 Descending FlightAware
01:31PM 40.1830 -76.5560 107° East 445 512 17,300 -2,040 Descending FlightAware
01:32PM 40.1648 -76.4788 107° East 440 506 16,100 -2,640 Descending FlightAware ADS-B
01:32PM 40.1466 -76.4015 107° East 434 499 14,900 -2,460 Descending FlightAware ADS-B
01:33PM 40.1283 -76.3247 107° East 429 494 13,600 -2,520 Descending FlightAware ADS-B
01:33PM 40.1211 -76.2867 104° East 430 495 13,000 -2,400 Descending FlightAware ADS-B
01:33PM 40.1149 -76.2085 96° East 427 491 11,800 -1,740 Descending FlightAware ADS-B
01:34PM 40.1093 -76.1269 95° East 403 464 11,200 -960 Descending FlightAware ADS-B
01:34PM 40.1042 -76.0541 95° East 380 437 10,800 -900 Descending FlightAware ADS-B
01:35PM 40.0995 -75.9870 95° East 358 412 10,300 -900 Descending FlightAware ADS-B
01:35PM 40.0955 -75.9303 95° East 338 389 10,000 -840 Descending FlightAware ADS-B
01:36PM 40.0933 -75.8999 95° East 327 376 9,700 -1,380 Descending FlightAware ADS-B
01:36PM 40.0911 -75.8698 95° East 325 374 9,300 -1,620 Descending FlightAware ADS-B
01:36PM 40.0890 -75.8404 95° East 320 368 8,900 -1,380 Descending FlightAware ADS-B
01:36PM 40.0867 -75.8105 96° East 320 368 8,600 -900 Descending FlightAware ADS-B
01:37PM 40.0844 -75.7766 95° East 310 357 8,400 -900 Descending FlightAware ADS-B
01:37PM 40.0823 -75.7469 95° East 307 353 8,100 -960 Descending FlightAware ADS-B
01:37PM 40.0811 -75.7286 95° East 309 356 8,000 -240 Descending FlightAware ADS-B
01:37PM 40.0798 -75.6988 93° East 310 357 8,000  Level FlightAware ADS-B
01:38PM 40.0785 -75.6664 93° East 311 358 8,000  Level FlightAware ADS-B
01:38PM 40.0769 -75.6315 93° East 310 357 8,000  Level FlightAware ADS-B
01:38PM 40.0756 -75.6035 93° East 310 357 8,000  Level FlightAware ADS-B
01:39PM 40.0742 -75.5745 94° East 310 357 8,000  Level FlightAware ADS-B
01:39PM 40.0728 -75.5453 94° East 311 358 8,000  Level FlightAware ADS-B
01:39PM 40.0713 -75.5137 94° East 312 359 8,000  Level FlightAware ADS-B
01:39PM 40.0699 -75.4856 94° East 311 358 8,000  Level FlightAware ADS-B
01:40PM 40.0685 -75.4560 94° East 310 357 8,000 -420 Level FlightAware ADS-B
01:40PM 40.0670 -75.4248 94° East 309 356 7,800 -1,320 Descending FlightAware ADS-B
01:40PM 40.0656 -75.3954 94° East 311 358 7,300 -1,560 Descending FlightAware ADS-B
01:40PM 40.0641 -75.3670 94° East 307 353 7,000 -1,020 Descending FlightAware ADS-B
01:41PM 40.0627 -75.3397 94° East 300 345 6,800 -780 Descending FlightAware ADS-B
01:41PM 40.0612 -75.3123 94° East 292 336 6,600 -780 Descending FlightAware ADS-B
01:41PM 40.0600 -75.2863 93° East 284 327 6,400 -840 Descending FlightAware ADS-B
01:41PM 40.0587 -75.2608 94° East 276 318 6,200 -660 Descending FlightAware ADS-B
01:42PM 40.0576 -75.2391 94° East 270 311 6,100 -540 Descending FlightAware ADS-B
01:42PM 40.0567 -75.2223 94° East 264 304 6,000 -480 Descending FlightAware ADS-B
01:42PM 40.0562 -75.2166 97° East 262 302 6,000  Level FlightAware ADS-B
01:42PM 40.0551 -75.2104 103° East 260 299 6,000  Level FlightAware ADS-B
01:42PM 40.0538 -75.2047 107° East 258 297 6,000  Level FlightAware ADS-B
01:42PM 40.0474 -75.1832 111° Southeast 254 292 6,000  Level FlightAware ADS-B
01:42PM 40.0454 -75.1773 114° Southeast 253 291 6,000 -720 Level FlightAware ADS-B
01:42PM 40.0428 -75.1706 117° Southeast 249 287 5,900 -1,380 Descending FlightAware ADS-B
01:42PM 40.0405 -75.1661 124° Southeast 245 282 5,800 -1,380 Descending FlightAware ADS-B
01:43PM 40.0373 -75.1607 128° Southeast 241 277 5,700 -1,680 Descending FlightAware ADS-B
01:43PM 40.0325 -75.1538 132° Southeast 238 274 5,500 -1,620 Descending FlightAware ADS-B
01:43PM 40.0257 -75.1454 137° Southeast 235 270 5,300 -1,800 Descending FlightAware ADS-B
01:43PM 40.0187 -75.1379 141° Southeast 231 266 5,000 -1,500 Descending FlightAware ADS-B
01:43PM 40.0051 -75.1246 143° Southeast 225 259 4,700 -1,440 Descending FlightAware ADS-B
01:43PM 39.9979 -75.1177 144° Southeast 219 252 4,400 -1,860 Descending FlightAware ADS-B
01:44PM 39.9836 -75.1049 146° Southeast 208 239 3,900 -2,220 Descending FlightAware ADS-B
01:44PM 39.9708 -75.0942 147° Southeast 208 239 3,200 -2,880 Descending FlightAware ADS-B
01:44PM 39.9667 -75.0916 154° Southeast 209 241 2,900 -2,160 Descending FlightAware ADS-B
01:44PM 39.9586 -75.0873 158° South 203 234 2,700 -1,440 Descending FlightAware ADS-B
01:44PM 39.9485 -75.0827 161° South 193 222 2,400 -1,680 Descending FlightAware ADS-B
01:44PM 39.9401 -75.0804 168° South 186 214 2,100 -1,620 Descending FlightAware ADS-B
01:45PM 39.9353 -75.0799 175° South 179 206 2,000 -1,140 Descending FlightAware ADS-B
01:45PM 39.9310 -75.0800 181° South 179 206 1,900 -1,200 Descending FlightAware ADS-B
01:45PM 39.9274 -75.0805 186° South 179 206 1,800 -780 Descending FlightAware ADS-B
01:45PM 39.9241 -75.0816 194° South 179 206 1,800  Level FlightAware ADS-B
01:45PM 39.9192 -75.0845 204° Southwest 180 207 1,800  Level FlightAware ADS-B
01:45PM 39.9155 -75.0876 213° Southwest 178 205 1,800  Level FlightAware ADS-B
01:45PM 39.9125 -75.0908 219° Southwest 179 206 1,800  Level FlightAware ADS-B
01:45PM 39.9080 -75.0970 227° Southwest 179 206 1,800  Level FlightAware ADS-B
01:45PM 39.9033 -75.1053 234° Southwest 178 205 1,800  Level FlightAware ADS-B
01:46PM 39.8988 -75.1149 239° Southwest 181 208 1,800 -660 Level FlightAware ADS-B
01:46PM 39.8958 -75.1233 245° Southwest 179 206 1,600 -1,380 Descending FlightAware ADS-B
01:46PM 39.8934 -75.1325 251° West 170 196 1,400 -1,020 Descending FlightAware ADS-B
01:46PM 39.8903 -75.1472 255° West 160 184 1,200 -780 Descending FlightAware ADS-B
01:46PM 39.8876 -75.1608 255° West 150 173 1,000 -780 Descending FlightAware ADS-B
01:47PM 39.8848 -75.1749 255° West 145 167 800 -780 Descending FlightAware ADS-B
01:47PM 39.8821 -75.1880 255° West 147 169 600 -780 Descending FlightAware ADS-B
01:47PM 39.8792 -75.2027 256° West 148 170 400 -720 Descending FlightAware ADS-B
01:47PM 39.8769 -75.2144 256° West 148 170 200 -540 Descending FAA TRACON SMA TRACON (SMA)
01:48PM 39.8761 -75.2183 254° West 147 169 100 -180 Descending FAA TRACON SMA TRACON (SMA)
01:48PM 39.8761 -75.2183 293° West 147 169 100  Level FAA TRACON SMA TRACON (SMA)